createdAt,value
2017-05-02T00:00:39.625Z,12.48
2017-05-02T00:03:06.294Z,11.90
2017-05-02T00:05:32.958Z,11.00
2017-05-02T00:07:59.619Z,12.02
2017-05-02T00:10:26.286Z,12.43
2017-05-02T00:12:52.957Z,13.05
2017-05-02T00:15:19.618Z,12.82
2017-05-02T00:17:46.287Z,13.32
2017-05-02T00:20:12.950Z,13.87
2017-05-02T00:22:39.618Z,14.67
2017-05-02T00:25:06.283Z,13.67
2017-05-02T00:27:32.948Z,12.62
2017-05-02T00:29:59.610Z,13.40
2017-05-02T00:32:26.278Z,14.43
2017-05-02T00:34:52.935Z,13.53
2017-05-02T00:37:19.606Z,14.83
2017-05-02T00:39:46.274Z,13.38
2017-05-02T00:42:12.967Z,14.05
2017-05-02T00:44:39.635Z,13.97
2017-05-02T00:47:06.335Z,14.47
2017-05-02T00:49:32.999Z,12.85
2017-05-02T00:51:59.662Z,13.07
2017-05-02T00:54:26.328Z,12.73
2017-05-02T00:56:52.999Z,12.35
2017-05-02T00:59:19.672Z,13.35
2017-05-02T01:01:46.343Z,12.93
2017-05-02T01:04:13.011Z,12.97
2017-05-02T01:06:39.678Z,12.37
2017-05-02T01:09:06.340Z,13.23
2017-05-02T01:11:33.018Z,14.02
2017-05-02T01:13:59.682Z,13.37
2017-05-02T01:16:26.351Z,13.02
2017-05-02T01:18:53.020Z,12.38
2017-05-02T01:21:19.688Z,13.45
2017-05-02T01:23:46.355Z,11.48
2017-05-02T01:26:13.026Z,13.20
2017-05-02T01:28:39.695Z,13.37
2017-05-02T01:31:06.370Z,12.52
2017-05-02T01:33:33.059Z,12.20
2017-05-02T01:35:59.722Z,12.82
2017-05-02T01:38:26.406Z,12.17
2017-05-02T01:40:53.070Z,12.75
2017-05-02T01:43:19.780Z,12.70
2017-05-02T01:45:46.453Z,12.17
2017-05-02T01:48:13.119Z,12.73
2017-05-02T01:50:39.783Z,12.10
2017-05-02T01:53:06.450Z,12.97
2017-05-02T01:55:33.118Z,11.80
2017-05-02T01:57:59.784Z,12.92
2017-05-02T02:00:26.450Z,12.02
2017-05-02T02:02:53.122Z,12.08
2017-05-02T02:05:19.788Z,11.95
2017-05-02T02:07:46.459Z,12.52
2017-05-02T02:10:13.136Z,12.70
2017-05-02T02:12:39.798Z,13.88
2017-05-02T02:15:06.458Z,12.07
2017-05-02T02:17:33.127Z,12.07
2017-05-02T02:19:59.792Z,12.82
2017-05-02T02:22:26.457Z,11.05
2017-05-02T02:24:53.127Z,11.78
2017-05-02T02:27:19.796Z,12.20
2017-05-02T02:29:46.463Z,12.52
2017-05-02T02:32:13.131Z,12.70
2017-05-02T02:34:40.053Z,12.40
2017-05-02T02:37:06.729Z,13.27
2017-05-02T02:39:33.414Z,12.50
2017-05-02T02:42:00.075Z,12.20
2017-05-02T02:44:26.743Z,12.35
2017-05-02T02:46:53.411Z,12.92
2017-05-02T02:49:20.070Z,12.67
2017-05-02T02:51:46.735Z,11.73
2017-05-02T02:54:13.403Z,12.83
2017-05-02T02:56:40.066Z,12.93
2017-05-02T02:59:06.737Z,12.90
2017-05-02T03:01:33.411Z,13.32
2017-05-02T03:04:00.082Z,13.22
2017-05-02T03:06:26.746Z,12.47
2017-05-02T03:08:53.414Z,12.92
2017-05-02T03:11:20.083Z,13.53
2017-05-02T03:13:46.750Z,13.52
2017-05-02T03:16:14.516Z,13.48
2017-05-02T03:18:41.216Z,13.08
2017-05-02T03:21:07.882Z,13.68
2017-05-02T03:23:34.547Z,12.43
2017-05-02T03:26:01.221Z,13.37
2017-05-02T03:28:27.887Z,12.07
2017-05-02T03:30:54.556Z,11.80
2017-05-02T03:33:21.228Z,12.07
2017-05-02T03:35:47.893Z,13.20
2017-05-02T03:38:14.554Z,13.83
2017-05-02T03:40:41.222Z,13.38
2017-05-02T03:43:07.895Z,13.47
2017-05-02T03:45:34.597Z,13.98
2017-05-02T03:48:01.262Z,13.55
2017-05-02T03:50:27.924Z,13.08
2017-05-02T03:52:54.594Z,13.03
2017-05-02T03:55:21.263Z,12.33
2017-05-02T03:57:47.927Z,12.72
2017-05-02T04:00:14.594Z,13.55
2017-05-02T04:02:41.264Z,12.70
2017-05-02T04:05:07.926Z,13.48
2017-05-02T04:07:34.590Z,13.75
2017-05-02T04:10:01.259Z,12.80
2017-05-02T04:12:27.926Z,12.67
2017-05-02T04:14:54.599Z,11.90
2017-05-02T04:17:21.270Z,13.15
2017-05-02T04:19:47.938Z,12.37
2017-05-02T04:22:14.606Z,12.65
2017-05-02T04:24:41.278Z,11.90
2017-05-02T04:27:07.938Z,11.55
2017-05-02T04:29:34.603Z,11.93
2017-05-02T04:32:01.286Z,11.92
2017-05-02T04:34:27.955Z,11.73
2017-05-02T04:36:54.627Z,10.77
2017-05-02T04:39:21.295Z,11.95
2017-05-02T04:41:47.967Z,11.63
2017-05-02T04:44:14.636Z,11.22
2017-05-02T04:46:41.310Z,11.38
2017-05-02T04:49:07.982Z,10.93
2017-05-02T04:51:34.647Z,11.80
2017-05-02T04:54:01.321Z,11.58
2017-05-02T04:56:27.991Z,12.00
2017-05-02T04:58:54.662Z,10.90
2017-05-02T05:01:21.325Z,11.45
2017-05-02T05:03:48.003Z,11.75
2017-05-02T05:06:14.671Z,11.27
2017-05-02T05:08:41.343Z,10.98
2017-05-02T05:11:08.010Z,11.57
2017-05-02T05:13:34.679Z,11.30
2017-05-02T05:16:01.351Z,11.05
2017-05-02T05:18:28.019Z,11.97
2017-05-02T05:20:54.694Z,10.38
2017-05-02T05:23:21.363Z,9.95
2017-05-02T05:25:48.031Z,10.97
2017-05-02T05:28:14.705Z,10.02
2017-05-02T05:30:41.366Z,11.00
2017-05-02T05:33:08.030Z,10.02
2017-05-02T05:35:34.686Z,9.70
2017-05-02T05:38:01.354Z,10.87
2017-05-02T05:40:28.018Z,10.28
2017-05-02T05:42:54.680Z,9.92
2017-05-02T05:45:21.343Z,9.80
2017-05-02T05:47:48.003Z,9.95
2017-05-02T05:50:14.662Z,10.08
2017-05-02T05:52:41.330Z,10.17
2017-05-02T05:55:08.191Z,9.58
2017-05-02T05:57:34.854Z,10.13
2017-05-02T06:00:01.510Z,9.53
2017-05-02T06:02:28.167Z,9.40
2017-05-02T06:04:54.835Z,10.27
2017-05-02T06:07:21.502Z,10.18
2017-05-02T06:09:48.173Z,10.65
2017-05-02T06:12:14.829Z,8.63
2017-05-02T06:14:41.490Z,9.50
2017-05-02T06:17:08.159Z,9.78
2017-05-02T06:19:34.828Z,10.35
2017-05-02T06:22:01.494Z,9.65
2017-05-02T06:24:28.156Z,9.17
2017-05-02T06:26:54.816Z,9.58
2017-05-02T06:29:21.481Z,10.07
2017-05-02T06:31:48.143Z,9.42
2017-05-02T06:34:14.805Z,9.52
2017-05-02T06:36:41.474Z,10.10
2017-05-02T06:39:08.130Z,9.22
2017-05-02T06:41:34.804Z,10.52
2017-05-02T06:44:01.466Z,10.28
2017-05-02T06:46:28.130Z,10.30
2017-05-02T06:48:54.803Z,10.88
2017-05-02T06:51:21.474Z,10.27
2017-05-02T06:53:48.147Z,9.27
2017-05-02T06:56:14.810Z,10.20
2017-05-02T06:58:41.475Z,10.58
2017-05-02T07:01:08.143Z,9.70
2017-05-02T07:03:34.816Z,11.03
2017-05-02T07:06:01.482Z,10.98
2017-05-02T07:08:28.142Z,9.97
2017-05-02T07:10:54.814Z,9.98
2017-05-02T07:13:21.522Z,10.85
2017-05-02T07:15:48.185Z,11.27
2017-05-02T07:18:14.854Z,10.82
2017-05-02T07:20:41.518Z,10.63
2017-05-02T07:23:08.183Z,11.95
2017-05-02T07:25:34.847Z,11.68
2017-05-02T07:28:01.515Z,12.10
2017-05-02T07:30:28.179Z,11.63
2017-05-02T07:32:54.842Z,11.48
2017-05-02T07:35:21.502Z,11.73
2017-05-02T07:37:48.168Z,12.07
2017-05-02T07:40:14.834Z,11.48
2017-05-02T07:42:41.502Z,10.98
2017-05-02T07:45:08.171Z,10.55
2017-05-02T07:47:34.842Z,10.53
2017-05-02T07:50:01.526Z,10.83
2017-05-02T07:52:28.190Z,11.18
2017-05-02T07:54:54.851Z,11.65
2017-05-02T07:57:21.518Z,10.53
2017-05-02T07:59:48.183Z,10.00
2017-05-02T08:02:14.854Z,10.70
2017-05-02T08:04:41.522Z,10.28
2017-05-02T08:07:08.182Z,9.77
2017-05-02T08:09:34.838Z,11.38
2017-05-02T08:12:01.503Z,11.02
2017-05-02T08:14:28.173Z,10.25
2017-05-02T08:16:54.839Z,9.60
2017-05-02T08:19:21.502Z,10.05
2017-05-02T08:21:48.199Z,9.18
2017-05-02T08:24:14.850Z,9.70
2017-05-02T08:26:41.519Z,10.32
2017-05-02T08:29:08.178Z,9.77
2017-05-02T08:31:34.834Z,8.92
2017-05-02T08:34:01.496Z,8.62
2017-05-02T08:36:28.163Z,8.53
2017-05-02T08:38:54.826Z,8.92
2017-05-02T08:41:21.482Z,8.47
2017-05-02T08:43:48.150Z,10.07
2017-05-02T08:46:14.825Z,9.05
2017-05-02T08:48:41.487Z,9.18
2017-05-02T08:51:08.152Z,10.05
2017-05-02T08:53:34.821Z,9.22
2017-05-02T08:56:01.479Z,8.48
2017-05-02T08:58:28.138Z,8.75
2017-05-02T09:00:54.818Z,9.95
2017-05-02T09:03:21.478Z,9.23
2017-05-02T09:05:48.135Z,9.80
2017-05-02T09:08:14.791Z,8.97
2017-05-02T09:10:41.451Z,9.73
2017-05-02T09:13:08.135Z,9.17
2017-05-02T09:15:34.808Z,10.00
2017-05-02T09:18:01.467Z,9.92
2017-05-02T09:20:28.127Z,9.17
2017-05-02T09:22:54.785Z,8.73
2017-05-02T09:25:21.446Z,10.43
2017-05-02T09:27:48.110Z,10.03
2017-05-02T09:30:14.802Z,9.83
2017-05-02T09:32:41.462Z,9.87
2017-05-02T09:35:08.130Z,10.22
2017-05-02T09:37:34.804Z,11.10
2017-05-02T09:40:01.467Z,9.68
2017-05-02T09:42:28.130Z,9.52
2017-05-02T09:44:54.800Z,10.13
2017-05-02T09:47:21.470Z,10.92
2017-05-02T09:49:48.135Z,10.02
2017-05-02T09:52:14.803Z,11.48
2017-05-02T09:54:41.462Z,9.85
2017-05-02T09:57:08.123Z,10.35
2017-05-02T09:59:34.778Z,9.88
2017-05-02T10:02:01.438Z,9.90
2017-05-02T10:04:28.093Z,9.55
2017-05-02T10:06:54.758Z,9.60
2017-05-02T10:09:21.431Z,10.08
2017-05-02T10:11:48.092Z,9.40
2017-05-02T10:14:14.752Z,9.72
2017-05-02T10:16:41.426Z,10.47
2017-05-02T10:19:08.090Z,10.18
2017-05-02T10:21:34.750Z,9.80
2017-05-02T10:24:01.414Z,10.35
2017-05-02T10:26:28.082Z,10.05
2017-05-02T10:28:54.751Z,10.73
2017-05-02T10:31:21.419Z,9.83
2017-05-02T10:33:48.083Z,9.97
2017-05-02T10:36:14.752Z,10.75
2017-05-02T10:38:41.410Z,10.57
2017-05-02T10:41:08.085Z,10.53
2017-05-02T10:43:34.751Z,11.45
2017-05-02T10:46:01.410Z,10.20
2017-05-02T10:48:28.075Z,10.57
2017-05-02T10:50:54.737Z,11.57
2017-05-02T10:53:21.404Z,11.87
2017-05-02T10:55:48.063Z,11.20
2017-05-02T10:58:14.759Z,10.95
2017-05-02T11:00:41.423Z,10.80
2017-05-02T11:03:08.088Z,12.68
2017-05-02T11:05:34.761Z,12.48
2017-05-02T11:08:01.431Z,12.40
2017-05-02T11:10:28.098Z,11.38
2017-05-02T11:12:54.770Z,11.95
2017-05-02T11:15:21.435Z,11.55
2017-05-02T11:17:48.134Z,12.20
2017-05-02T11:20:14.799Z,11.70
2017-05-02T11:22:41.464Z,12.63
2017-05-02T11:25:08.150Z,11.43
2017-05-02T11:27:34.816Z,11.85
2017-05-02T11:30:01.480Z,11.68
2017-05-02T11:32:28.149Z,11.92
2017-05-02T11:34:54.815Z,11.62
2017-05-02T11:37:21.482Z,12.47
2017-05-02T11:39:48.146Z,12.57
2017-05-02T11:42:14.810Z,12.92
2017-05-02T11:44:41.634Z,12.43
2017-05-02T11:47:08.302Z,13.45
2017-05-02T11:49:34.973Z,13.70
2017-05-02T11:52:01.647Z,12.37
2017-05-02T11:54:28.315Z,13.28
2017-05-02T11:56:54.983Z,12.40
2017-05-02T11:59:21.655Z,12.62
2017-05-02T12:01:48.323Z,13.35
2017-05-02T12:04:14.986Z,12.90
2017-05-02T12:06:41.650Z,14.20
2017-05-02T12:09:08.314Z,14.98
2017-05-02T12:11:34.986Z,15.38
2017-05-02T12:14:01.650Z,14.33
2017-05-02T12:16:28.306Z,13.10
2017-05-02T12:18:54.971Z,15.88
2017-05-02T12:21:21.639Z,14.82
2017-05-02T12:23:48.307Z,16.30
2017-05-02T12:26:14.970Z,15.93
2017-05-02T12:28:41.641Z,14.72
2017-05-02T12:31:08.306Z,15.17
2017-05-02T12:33:34.979Z,17.28
2017-05-02T12:36:01.647Z,14.77
2017-05-02T12:38:28.310Z,15.92
2017-05-02T12:40:54.979Z,15.62
2017-05-02T12:43:21.644Z,16.02
2017-05-02T12:45:48.315Z,14.77
2017-05-02T12:48:14.987Z,17.17
2017-05-02T12:50:41.650Z,15.98
2017-05-02T12:53:08.323Z,17.58
2017-05-02T12:58:01.703Z,17.57
2017-05-02T13:00:28.370Z,17.07
2017-05-02T13:02:55.039Z,17.63
2017-05-02T13:05:21.710Z,18.48
2017-05-02T13:07:48.375Z,17.58
2017-05-02T13:10:15.055Z,16.80
2017-05-02T13:12:41.719Z,18.73
2017-05-02T13:15:08.387Z,18.30
2017-05-02T13:17:35.051Z,17.97
2017-05-02T13:20:01.731Z,16.83
2017-05-02T13:22:28.394Z,20.17
2017-05-02T13:24:55.063Z,19.58
2017-05-02T13:27:21.735Z,17.10
2017-05-02T13:29:48.412Z,18.53
2017-05-02T13:32:15.082Z,20.10
2017-05-02T13:34:41.748Z,20.07
2017-05-02T13:37:08.429Z,19.35
2017-05-02T13:39:35.095Z,19.18
2017-05-02T13:42:01.763Z,16.62
2017-05-02T13:44:28.429Z,18.05
2017-05-02T13:46:55.106Z,19.63
2017-05-02T13:49:22.062Z,17.82
2017-05-02T13:51:48.730Z,20.93
2017-05-02T13:54:15.391Z,19.10
2017-05-02T13:56:42.059Z,18.88
2017-05-02T13:59:08.721Z,18.48
2017-05-02T14:01:35.379Z,18.77
2017-05-02T14:04:02.038Z,20.08
2017-05-02T14:06:28.706Z,19.78
2017-05-02T14:08:55.375Z,17.63
2017-05-02T14:11:22.038Z,16.58
2017-05-02T14:13:48.703Z,19.00
2017-05-02T14:16:15.366Z,18.92
2017-05-02T14:18:42.039Z,19.25
2017-05-02T14:21:08.730Z,18.83
2017-05-02T14:23:35.402Z,19.23
2017-05-02T14:26:02.075Z,17.28
2017-05-02T14:28:28.775Z,19.22
2017-05-02T14:30:55.444Z,19.00
2017-05-02T14:33:22.143Z,16.67
2017-05-02T14:35:48.815Z,17.42
2017-05-02T14:38:15.519Z,17.30
2017-05-02T14:40:42.182Z,16.77
2017-05-02T14:43:08.850Z,17.70
2017-05-02T14:45:35.519Z,16.83
2017-05-02T14:48:02.187Z,17.62
2017-05-02T14:50:28.859Z,18.20
2017-05-02T14:52:55.526Z,17.17
2017-05-02T14:55:22.195Z,17.48
2017-05-02T14:57:48.857Z,17.35
2017-05-02T15:00:15.547Z,16.47
2017-05-02T15:02:42.211Z,16.67
2017-05-02T15:05:08.878Z,17.92
2017-05-02T15:07:35.542Z,15.15
2017-05-02T15:10:02.211Z,15.10
2017-05-02T15:12:28.876Z,15.15
2017-05-02T15:14:55.551Z,14.03
2017-05-02T15:17:22.231Z,13.47
2017-05-02T15:19:48.902Z,13.07
2017-05-02T15:22:15.573Z,12.73
2017-05-02T15:24:42.239Z,13.85
2017-05-02T15:27:08.911Z,13.28
2017-05-02T15:29:35.579Z,12.35
2017-05-02T15:32:02.314Z,12.80
2017-05-02T15:34:28.979Z,11.25
2017-05-02T15:36:55.650Z,9.87
2017-05-02T15:39:22.355Z,12.93
2017-05-02T15:41:49.018Z,11.75
2017-05-02T15:44:15.783Z,11.58
2017-05-02T15:46:42.451Z,11.10
2017-05-02T15:49:09.130Z,12.85
2017-05-02T15:51:35.795Z,12.22
2017-05-02T15:54:02.462Z,12.77
2017-05-02T15:56:29.631Z,11.68
2017-05-02T15:58:56.326Z,13.27
2017-05-02T16:01:22.990Z,12.73
2017-05-02T16:03:49.665Z,12.55
2017-05-02T16:06:16.334Z,13.33
2017-05-02T16:08:43.002Z,12.07
2017-05-02T16:11:09.677Z,14.08
2017-05-02T16:13:36.363Z,14.08
2017-05-02T16:16:03.022Z,13.00
2017-05-02T16:18:29.690Z,14.00
2017-05-02T16:20:56.864Z,12.20
2017-05-02T16:23:23.538Z,13.10
2017-05-02T16:25:50.649Z,11.50
2017-05-02T16:28:17.350Z,12.42
2017-05-02T16:30:44.017Z,11.97
2017-05-02T16:33:10.691Z,12.08
2017-05-02T16:35:37.387Z,12.13
2017-05-02T16:38:04.045Z,10.85
2017-05-02T16:40:30.734Z,13.48
2017-05-02T16:42:57.401Z,11.77
2017-05-02T16:45:24.094Z,12.13
2017-05-02T16:47:50.761Z,12.68
2017-05-02T16:50:17.423Z,11.63
2017-05-02T16:52:44.111Z,13.45
2017-05-02T16:55:10.780Z,11.82
2017-05-02T16:57:37.463Z,12.23
2017-05-02T17:00:04.126Z,12.87
2017-05-02T17:02:30.810Z,13.18
2017-05-02T17:04:57.479Z,15.03
2017-05-02T17:07:24.227Z,12.92
2017-05-02T17:09:50.937Z,12.97
2017-05-02T17:12:17.638Z,13.15
2017-05-02T17:14:44.313Z,13.03
2017-05-02T17:17:11.007Z,15.43
2017-05-02T17:19:37.674Z,12.88
2017-05-02T17:22:04.358Z,14.23
2017-05-02T17:24:31.027Z,13.23
2017-05-02T17:26:57.723Z,12.50
2017-05-02T17:29:24.395Z,15.18
2017-05-02T17:31:51.055Z,13.87
2017-05-02T17:34:17.747Z,12.77
2017-05-02T17:36:44.830Z,12.33
2017-05-02T17:39:11.517Z,13.58
2017-05-02T17:41:38.179Z,13.02
2017-05-02T17:44:04.862Z,12.68
2017-05-02T17:46:31.529Z,14.90
2017-05-02T17:48:58.214Z,13.70
2017-05-02T17:51:24.886Z,14.15
2017-05-02T17:53:51.916Z,13.32
2017-05-02T17:56:18.585Z,13.67
2017-05-02T17:58:45.270Z,13.32
2017-05-02T18:01:11.930Z,13.62
2017-05-02T18:03:38.623Z,14.70
2017-05-02T18:06:05.284Z,13.57
2017-05-02T18:08:31.987Z,14.03
2017-05-02T18:10:58.654Z,14.85
2017-05-02T18:13:25.338Z,14.72
2017-05-02T18:15:52.009Z,12.82
2017-05-02T18:18:18.699Z,14.75
2017-05-02T18:20:45.373Z,14.58
2017-05-02T18:23:12.076Z,15.90
2017-05-02T18:25:38.743Z,15.33
2017-05-02T18:28:05.411Z,14.77
2017-05-02T18:30:32.098Z,15.65
2017-05-02T18:32:58.766Z,14.97
2017-05-02T18:35:25.466Z,15.40
2017-05-02T18:37:52.135Z,16.08
2017-05-02T18:40:18.835Z,16.65
2017-05-02T18:42:45.505Z,16.28
2017-05-02T18:45:12.198Z,16.85
2017-05-02T18:47:38.864Z,15.58
2017-05-02T18:50:05.550Z,15.75
2017-05-02T18:52:32.222Z,16.80
2017-05-02T18:54:58.911Z,17.30
2017-05-02T18:57:25.582Z,16.87
2017-05-02T18:59:52.270Z,17.03
2017-05-02T19:02:18.934Z,17.12
2017-05-02T19:04:45.622Z,17.67
2017-05-02T19:07:12.295Z,18.37
2017-05-02T19:09:38.999Z,18.10
2017-05-02T19:12:05.663Z,16.90
2017-05-02T19:14:32.367Z,17.72
2017-05-02T19:16:59.030Z,16.18
2017-05-02T19:19:25.726Z,19.03
2017-05-02T19:21:52.392Z,16.75
2017-05-02T19:24:19.059Z,19.28
2017-05-02T19:26:45.746Z,17.43
2017-05-02T19:29:12.428Z,19.05
2017-05-02T19:31:39.119Z,17.18
2017-05-02T19:34:05.786Z,18.25
2017-05-02T19:36:32.470Z,18.82
2017-05-02T19:38:59.138Z,18.30
2017-05-02T19:41:25.849Z,17.27
2017-05-02T19:43:52.513Z,19.57
2017-05-02T19:46:19.196Z,17.68
2017-05-02T19:48:45.883Z,18.67
2017-05-02T19:51:12.566Z,18.25
2017-05-02T19:53:39.255Z,18.05
2017-05-02T19:56:05.918Z,18.82
2017-05-02T19:58:32.616Z,19.33
2017-05-02T20:00:59.287Z,20.28
2017-05-02T20:03:25.983Z,22.93
2017-05-02T20:05:52.651Z,18.97
2017-05-02T20:08:19.377Z,20.08
2017-05-02T20:10:46.059Z,21.35
2017-05-02T20:13:12.751Z,22.98
2017-05-02T20:15:39.421Z,21.18
2017-05-02T20:18:06.111Z,20.00
2017-05-02T20:20:32.795Z,19.83
2017-05-02T20:22:59.491Z,20.47
2017-05-02T20:25:26.157Z,19.78
2017-05-02T20:27:52.846Z,20.28
2017-05-02T20:30:19.514Z,20.70
2017-05-02T20:32:46.189Z,20.80
2017-05-02T20:35:12.883Z,20.27
2017-05-02T20:37:39.556Z,20.82
2017-05-02T20:40:06.248Z,21.03
2017-05-02T20:42:32.910Z,20.70
2017-05-02T20:44:59.595Z,21.85
2017-05-02T20:47:26.263Z,22.27
2017-05-02T20:49:52.952Z,21.38
2017-05-02T20:52:19.634Z,20.83
2017-05-02T20:54:46.321Z,19.78
2017-05-02T20:57:12.982Z,23.27
2017-05-02T20:59:39.668Z,23.62
2017-05-02T21:02:06.332Z,22.23
2017-05-02T21:04:33.014Z,21.75
2017-05-02T21:06:59.670Z,21.12
2017-05-02T21:09:26.362Z,22.93
2017-05-02T21:11:53.023Z,19.52
2017-05-02T21:14:19.710Z,23.22
2017-05-02T21:16:46.379Z,22.28
2017-05-02T21:19:13.070Z,22.17
2017-05-02T21:21:39.735Z,21.15
2017-05-02T21:24:06.426Z,24.75
2017-05-02T21:26:33.090Z,22.93
2017-05-02T21:28:59.760Z,23.32
2017-05-02T21:31:26.445Z,22.08
2017-05-02T21:33:53.111Z,24.85
2017-05-02T21:36:19.803Z,22.82
2017-05-02T21:38:46.475Z,24.08
2017-05-02T21:41:13.162Z,24.02
2017-05-02T21:43:39.841Z,23.17
2017-05-02T21:46:06.532Z,22.98
2017-05-02T21:48:33.199Z,22.65
2017-05-02T21:50:59.889Z,23.02
2017-05-02T21:53:26.560Z,23.85
2017-05-02T21:55:53.246Z,22.45
2017-05-02T21:58:19.907Z,23.15
2017-05-02T22:00:46.597Z,23.20
2017-05-02T22:03:13.510Z,21.52
2017-05-02T22:05:40.200Z,23.33
2017-05-02T22:08:06.867Z,22.17
2017-05-02T22:10:33.555Z,20.33
2017-05-02T22:13:00.229Z,24.40
2017-05-02T22:15:26.915Z,20.97
2017-05-02T22:17:53.581Z,22.72
2017-05-02T22:20:20.275Z,22.43
2017-05-02T22:22:46.938Z,22.00
2017-05-02T22:25:13.614Z,23.70
2017-05-02T22:27:40.300Z,22.33
2017-05-02T22:30:06.962Z,20.25
2017-05-02T22:32:33.652Z,23.00
2017-05-02T22:35:00.322Z,23.93
2017-05-02T22:37:27.010Z,22.22
2017-05-02T22:39:53.911Z,24.00
2017-05-02T22:42:21.464Z,23.63
2017-05-02T22:44:48.146Z,23.27
2017-05-02T22:47:14.835Z,25.12
2017-05-02T22:49:41.498Z,25.27
2017-05-02T22:52:08.182Z,22.88
2017-05-02T22:54:34.850Z,25.12
2017-05-02T22:57:01.535Z,26.10
2017-05-02T22:59:28.199Z,23.62
2017-05-02T23:01:54.879Z,26.45
2017-05-02T23:04:21.542Z,26.18
2017-05-02T23:06:48.240Z,28.65
2017-05-02T23:09:14.902Z,27.47
2017-05-02T23:11:41.587Z,27.67
2017-05-02T23:14:08.252Z,26.12
2017-05-02T23:16:34.938Z,26.97
2017-05-02T23:19:01.603Z,27.98
2017-05-02T23:21:28.266Z,29.03
2017-05-02T23:23:54.955Z,28.55
2017-05-02T23:26:21.619Z,25.18
2017-05-02T23:28:48.307Z,29.52
2017-05-02T23:31:14.974Z,27.90
2017-05-02T23:33:41.659Z,27.13
2017-05-02T23:36:08.330Z,29.50
2017-05-02T23:38:35.026Z,29.43
2017-05-02T23:41:01.695Z,28.38
2017-05-02T23:43:28.375Z,30.58
2017-05-02T23:45:55.046Z,30.77
2017-05-02T23:48:21.734Z,31.65
2017-05-02T23:50:48.398Z,32.17
2017-05-02T23:53:15.094Z,27.52
2017-05-02T23:55:41.760Z,28.53
2017-05-02T23:58:08.446Z,29.27
